Time;durP1;ratioP1;P1;durP2;ratioP2;P2;SDS_P1;SDS_P2;PMS_P1;PMS_P2;Temp;Humidity;BMP_temperature;BMP_pressure;BME280_temperature;BME280_humidity;BME280_pressure;Samples;Min_cycle;Max_cycle;Signal;HPM_P1;HPM_P2
2022/07/15 00:01:31;;;;;;;;;;;16.40;93.80;;;;;;5115847;28;19913;-64
2022/07/15 00:03:56;;;;;;;;;;;16.30;94.00;;;;;;5107382;28;19919;-65
2022/07/15 00:06:22;;;;;;;;;;;16.30;94.20;;;;;;5088554;28;19912;-63
2022/07/15 00:08:48;;;;;;;;;;;16.40;93.80;;;;;;5092385;28;19939;-65
2022/07/15 00:11:15;;;;;;;;;;;16.50;94.20;;;;;;5108129;28;20279;-65
2022/07/15 00:13:40;;;;;;;;;;;16.60;93.20;;;;;;5110221;28;19927;-64
2022/07/15 00:16:06;;;;;;;;;;;16.60;92.60;;;;;;5102465;28;19920;-64
2022/07/15 00:18:31;;;;;;;;;;;16.50;93.10;;;;;;5082852;28;19944;-64
2022/07/15 00:20:57;;;;;;;;;;;16.50;93.80;;;;;;5102389;28;19935;-64
2022/07/15 00:23:23;;;;;;;;;;;16.70;93.40;;;;;;5092580;28;19927;-65
2022/07/15 00:25:48;;;;;;;;;;;16.80;93.10;;;;;;5094933;28;19943;-63
2022/07/15 00:28:14;;;;;;;;;;;16.90;92.00;;;;;;5098726;28;19924;-63
2022/07/15 00:30:41;;;;;;;;;;;16.70;91.70;;;;;;5091318;28;19920;-63
2022/07/15 00:33:07;;;;;;;;;;;16.50;92.20;;;;;;5099521;28;19912;-63
2022/07/15 00:35:34;;;;;;;;;;;16.40;92.80;;;;;;5112768;28;20018;-63
2022/07/15 00:37:59;;;;;;;;;;;16.30;94.10;;;;;;5095088;28;19951;-64
2022/07/15 00:40:25;;;;;;;;;;;16.30;93.20;;;;;;5099442;28;19913;-63
2022/07/15 00:42:51;;;;;;;;;;;16.30;93.20;;;;;;5093497;28;20316;-64
2022/07/15 00:45:17;;;;;;;;;;;16.30;93.50;;;;;;5100044;28;20449;-64
2022/07/15 00:47:44;;;;;;;;;;;16.10;93.80;;;;;;5103939;28;20014;-65
2022/07/15 00:50:10;;;;;;;;;;;16.10;94.70;;;;;;5107246;28;19962;-63
2022/07/15 00:52:38;;;;;;;;;;;16.10;94.50;;;;;;5076191;28;20670;-64
2022/07/15 00:55:05;;;;;;;;;;;16.00;95.30;;;;;;5095608;28;19927;-64
2022/07/15 00:57:32;;;;;;;;;;;16.00;95.30;;;;;;5103884;28;19970;-64
2022/07/15 01:00:01;;;;;;;;;;;16.00;94.80;;;;;;5109853;28;20006;-64
2022/07/15 01:02:26;;;;;;;;;;;16.00;95.00;;;;;;5094397;28;20408;-63
2022/07/15 01:04:52;;;;;;;;;;;16.10;95.10;;;;;;5097756;28;19916;-64
2022/07/15 01:07:18;;;;;;;;;;;16.10;94.60;;;;;;5101685;28;19916;-64
2022/07/15 01:09:43;;;;;;;;;;;16.00;94.60;;;;;;5096173;28;19918;-64
2022/07/15 01:12:09;;;;;;;;;;;16.10;95.90;;;;;;5096435;28;19923;-64
2022/07/15 01:14:36;;;;;;;;;;;16.20;95.80;;;;;;5097888;28;19919;-64
2022/07/15 01:17:01;;;;;;;;;;;16.30;96.00;;;;;;5081960;28;20010;-64
2022/07/15 01:19:27;;;;;;;;;;;16.30;95.20;;;;;;5106387;28;19951;-64
2022/07/15 01:21:52;;;;;;;;;;;16.30;95.10;;;;;;5097703;28;19954;-63
2022/07/15 01:24:18;;;;;;;;;;;16.10;95.60;;;;;;5104071;28;19923;-64
2022/07/15 01:26:44;;;;;;;;;;;15.90;96.90;;;;;;5113892;28;19912;-64
2022/07/15 01:29:09;;;;;;;;;;;15.70;98.20;;;;;;5095390;28;19916;-64
2022/07/15 01:31:35;;;;;;;;;;;15.60;99.50;;;;;;5094176;28;19920;-64
2022/07/15 01:34:00;;;;;;;;;;;15.60;99.90;;;;;;5095734;28;19916;-64
2022/07/15 01:36:26;;;;;;;;;;;15.40;99.90;;;;;;5079309;28;19961;-63
2022/07/15 01:38:51;;;;;;;;;;;15.30;99.90;;;;;;5093776;28;19912;-64
2022/07/15 01:41:17;;;;;;;;;;;15.30;99.90;;;;;;5100836;28;20006;-63
2022/07/15 01:43:43;;;;;;;;;;;15.20;99.90;;;;;;5095637;28;19919;-64
2022/07/15 01:46:08;;;;;;;;;;;15.20;99.90;;;;;;5092829;28;19912;-64
2022/07/15 01:51:18;;;;;;;;;;;15.20;99.90;;;;;;5100133;28;19935;-64
2022/07/15 01:53:43;;;;;;;;;;;15.20;99.90;;;;;;5093013;28;20366;-64
2022/07/15 01:56:09;;;;;;;;;;;15.10;99.90;;;;;;5094060;28;20370;-63
2022/07/15 01:58:35;;;;;;;;;;;14.90;99.90;;;;;;5098883;28;20281;-63
2022/07/15 02:01:00;;;;;;;;;;;14.80;99.90;;;;;;5094033;28;19938;-64
2022/07/15 02:03:26;;;;;;;;;;;14.60;99.90;;;;;;5102675;28;20020;-63
2022/07/15 02:05:52;;;;;;;;;;;14.50;99.90;;;;;;5099328;28;19920;-64
2022/07/15 02:08:17;;;;;;;;;;;14.50;99.90;;;;;;5102524;28;20319;-64
2022/07/15 02:10:43;;;;;;;;;;;14.50;99.90;;;;;;5100628;28;20068;-64
2022/07/15 02:13:09;;;;;;;;;;;14.40;99.90;;;;;;5098699;28;19912;-64
2022/07/15 02:15:35;;;;;;;;;;;14.30;99.90;;;;;;5083762;28;20003;-64
2022/07/15 02:18:01;;;;;;;;;;;14.20;99.90;;;;;;5092213;28;20029;-64
2022/07/15 02:20:27;;;;;;;;;;;14.10;99.90;;;;;;5094046;28;19979;-65
2022/07/15 02:22:53;;;;;;;;;;;14.10;99.90;;;;;;5101290;28;19912;-65
2022/07/15 02:25:19;;;;;;;;;;;14.00;99.90;;;;;;5111806;28;19912;-64
2022/07/15 02:27:44;;;;;;;;;;;13.90;99.90;;;;;;5097540;28;20266;-64
2022/07/15 02:30:11;;;;;;;;;;;13.90;99.90;;;;;;5111098;28;19912;-64
2022/07/15 02:32:37;;;;;;;;;;;13.90;99.90;;;;;;5098210;28;19912;-64
2022/07/15 02:35:03;;;;;;;;;;;13.90;99.90;;;;;;5093386;28;19974;-64
2022/07/15 02:37:28;;;;;;;;;;;14.00;99.90;;;;;;5098606;28;19972;-64
2022/07/15 02:39:54;;;;;;;;;;;13.80;99.90;;;;;;5100588;28;19916;-64
2022/07/15 02:42:20;;;;;;;;;;;13.70;99.90;;;;;;5097881;28;19912;-64
2022/07/15 02:44:45;;;;;;;;;;;13.60;99.90;;;;;;5081990;28;19912;-64
2022/07/15 02:47:11;;;;;;;;;;;13.60;99.90;;;;;;5096937;28;19966;-64
2022/07/15 02:49:36;;;;;;;;;;;13.60;99.90;;;;;;5101489;28;19987;-64
2022/07/15 02:52:02;;;;;;;;;;;13.40;99.90;;;;;;5096248;28;20290;-64
2022/07/15 02:54:27;;;;;;;;;;;13.30;99.90;;;;;;5102545;28;20324;-63
2022/07/15 02:56:53;;;;;;;;;;;13.20;99.90;;;;;;5094851;28;19912;-63
2022/07/15 02:59:19;;;;;;;;;;;13.20;99.90;;;;;;5098686;28;19911;-63
2022/07/15 03:01:44;;;;;;;;;;;13.20;99.90;;;;;;5091028;28;19919;-64
2022/07/15 03:04:10;;;;;;;;;;;13.20;99.90;;;;;;5102589;28;19912;-65
2022/07/15 03:06:36;;;;;;;;;;;13.00;99.90;;;;;;5094650;28;20342;-64
2022/07/15 03:09:01;;;;;;;;;;;13.00;99.90;;;;;;5098068;28;20429;-64
2022/07/15 03:11:27;;;;;;;;;;;13.00;99.90;;;;;;5092666;28;20381;-64
2022/07/15 03:13:52;;;;;;;;;;;12.90;99.90;;;;;;5098406;28;19919;-64
2022/07/15 03:16:18;;;;;;;;;;;13.00;99.90;;;;;;5077096;28;19928;-64
2022/07/15 03:18:43;;;;;;;;;;;12.90;99.90;;;;;;5072808;28;19992;-64
2022/07/15 03:21:09;;;;;;;;;;;12.80;99.90;;;;;;5074803;28;19913;-64
2022/07/15 03:23:35;;;;;;;;;;;12.90;99.90;;;;;;5074140;28;19919;-64
2022/07/15 03:26:01;;;;;;;;;;;12.80;99.90;;;;;;5073392;28;19913;-64
2022/07/15 03:28:26;;;;;;;;;;;12.80;99.90;;;;;;5082440;28;19913;-63
2022/07/15 03:30:52;;;;;;;;;;;12.70;99.90;;;;;;5073363;28;20366;-64
2022/07/15 03:33:17;;;;;;;;;;;12.70;99.90;;;;;;5071341;28;19913;-64
2022/07/15 03:35:43;;;;;;;;;;;12.70;99.90;;;;;;5075281;28;19921;-64
2022/07/15 03:38:09;;;;;;;;;;;12.70;99.90;;;;;;5074550;28;19912;-64
2022/07/15 03:40:34;;;;;;;;;;;12.60;99.90;;;;;;5077045;28;19920;-64
2022/07/15 03:43:00;;;;;;;;;;;12.60;99.90;;;;;;5084908;28;20362;-64
2022/07/15 03:45:25;;;;;;;;;;;12.60;99.90;;;;;;5079956;28;19995;-64
2022/07/15 03:47:51;;;;;;;;;;;12.50;99.90;;;;;;5077144;28;19961;-64
2022/07/15 03:50:17;;;;;;;;;;;12.50;99.90;;;;;;5079405;28;19926;-64
2022/07/15 03:52:42;;;;;;;;;;;12.50;99.90;;;;;;5076263;28;19966;-64
2022/07/15 03:55:09;;;;;;;;;;;12.30;99.90;;;;;;5072941;28;20015;-64
2022/07/15 03:57:35;;;;;;;;;;;12.20;99.90;;;;;;5080008;28;19913;-64
2022/07/15 04:00:01;;;;;;;;;;;12.20;99.90;;;;;;5077073;28;19931;-64
2022/07/15 04:02:26;;;;;;;;;;;12.10;99.90;;;;;;5077374;28;19944;-64
2022/07/15 04:04:52;;;;;;;;;;;12.00;99.90;;;;;;5076893;28;19962;-64
2022/07/15 04:07:17;;;;;;;;;;;12.00;99.90;;;;;;5071352;28;19912;-63
2022/07/15 04:09:43;;;;;;;;;;;12.00;99.90;;;;;;5073457;28;19916;-63
2022/07/15 04:12:10;;;;;;;;;;;12.00;99.90;;;;;;5072479;28;19912;-64
2022/07/15 04:14:35;;;;;;;;;;;11.90;99.90;;;;;;5079664;28;19920;-64
2022/07/15 04:17:01;;;;;;;;;;;11.90;99.90;;;;;;5094680;28;20700;-64
2022/07/15 04:19:27;;;;;;;;;;;11.90;99.90;;;;;;5105238;28;19912;-64
2022/07/15 04:21:52;;;;;;;;;;;11.90;99.90;;;;;;5101434;28;20287;-64
2022/07/15 04:24:18;;;;;;;;;;;11.90;99.90;;;;;;5103993;28;19955;-64
2022/07/15 04:26:43;;;;;;;;;;;11.90;99.90;;;;;;5076707;28;19938;-64
2022/07/15 04:29:09;;;;;;;;;;;11.90;99.90;;;;;;5096689;28;19955;-63
2022/07/15 04:31:34;;;;;;;;;;;11.90;99.90;;;;;;5099455;28;19912;-64
2022/07/15 04:34:00;;;;;;;;;;;11.90;99.90;;;;;;5090735;28;19912;-63
2022/07/15 04:36:25;;;;;;;;;;;12.00;99.90;;;;;;5101089;28;19928;-64
2022/07/15 04:38:51;;;;;;;;;;;12.10;99.90;;;;;;5106308;28;20389;-63
2022/07/15 04:41:17;;;;;;;;;;;12.10;99.90;;;;;;5097625;28;19939;-64
2022/07/15 04:43:42;;;;;;;;;;;12.10;99.90;;;;;;5095672;28;20007;-64
2022/07/15 04:46:08;;;;;;;;;;;12.10;99.90;;;;;;5101977;28;19920;-64
2022/07/15 04:51:18;;;;;;;;;;;12.20;99.90;;;;;;5101954;28;19931;-64
2022/07/15 04:53:43;;;;;;;;;;;12.20;99.90;;;;;;5106255;28;19912;-64
2022/07/15 04:56:09;;;;;;;;;;;12.20;99.90;;;;;;5093626;28;19920;-64
2022/07/15 04:58:35;;;;;;;;;;;12.20;99.90;;;;;;5104880;28;20012;-64
2022/07/15 05:01:00;;;;;;;;;;;12.20;99.90;;;;;;5099929;28;19919;-64
2022/07/15 05:03:26;;;;;;;;;;;12.30;99.90;;;;;;5100625;28;19911;-63
2022/07/15 05:05:52;;;;;;;;;;;12.30;99.90;;;;;;5096807;28;19912;-63
2022/07/15 05:08:18;;;;;;;;;;;12.20;99.90;;;;;;5099707;28;19964;-64
2022/07/15 05:10:43;;;;;;;;;;;12.20;99.90;;;;;;5085782;28;20182;-63
2022/07/15 05:13:12;;;;;;;;;;;12.30;99.90;;;;;;5100639;28;20000;-64
2022/07/15 05:15:37;;;;;;;;;;;12.40;99.90;;;;;;5096833;28;19928;-64
2022/07/15 05:18:04;;;;;;;;;;;12.40;99.90;;;;;;5094442;28;20393;-64
2022/07/15 05:20:29;;;;;;;;;;;12.40;99.90;;;;;;5094272;28;19920;-64
2022/07/15 05:22:55;;;;;;;;;;;12.50;99.90;;;;;;5103218;28;19921;-63
2022/07/15 05:25:20;;;;;;;;;;;12.60;99.90;;;;;;5099837;28;19912;-64
2022/07/15 05:27:46;;;;;;;;;;;12.70;99.90;;;;;;5096021;28;20002;-62
2022/07/15 05:30:17;;;;;;;;;;;12.80;99.90;;;;;;5100063;28;19942;-64
2022/07/15 05:32:43;;;;;;;;;;;12.90;99.90;;;;;;5098423;28;19912;-64
2022/07/15 05:35:09;;;;;;;;;;;13.10;99.90;;;;;;5105280;28;20278;-63
2022/07/15 05:37:38;;;;;;;;;;;13.10;99.90;;;;;;5098333;28;19999;-63
2022/07/15 05:40:06;;;;;;;;;;;13.30;99.90;;;;;;5098350;28;19912;-63
2022/07/15 05:42:32;;;;;;;;;;;13.50;99.90;;;;;;5101263;28;19969;-64
2022/07/15 05:44:57;;;;;;;;;;;13.70;99.90;;;;;;5100690;28;19959;-63
2022/07/15 05:47:23;;;;;;;;;;;14.00;99.90;;;;;;5101297;28;19965;-64
2022/07/15 05:49:48;;;;;;;;;;;14.20;99.90;;;;;;5098704;28;19966;-64
2022/07/15 05:52:14;;;;;;;;;;;14.40;99.90;;;;;;5097667;28;19978;-64
2022/07/15 05:54:39;;;;;;;;;;;14.60;99.90;;;;;;5085623;28;19919;-65
2022/07/15 05:57:05;;;;;;;;;;;14.80;99.90;;;;;;5098744;28;20007;-64
2022/07/15 05:59:31;;;;;;;;;;;14.90;99.90;;;;;;5093247;28;19912;-64
2022/07/15 06:01:57;;;;;;;;;;;15.00;99.90;;;;;;5091775;28;20000;-63
2022/07/15 06:04:26;;;;;;;;;;;15.20;99.90;;;;;;5101558;28;20384;-64
2022/07/15 06:06:53;;;;;;;;;;;15.20;99.90;;;;;;5095826;28;19942;-64
2022/07/15 06:09:19;;;;;;;;;;;15.20;99.90;;;;;;5098922;28;20326;-65
2022/07/15 06:11:44;;;;;;;;;;;15.20;99.90;;;;;;5095748;28;19912;-64
2022/07/15 06:14:10;;;;;;;;;;;15.40;99.90;;;;;;5102956;28;19935;-64
2022/07/15 06:16:36;;;;;;;;;;;15.40;99.90;;;;;;5101483;28;19968;-64
2022/07/15 06:19:01;;;;;;;;;;;15.50;99.90;;;;;;5096472;28;19991;-64
2022/07/15 06:21:27;;;;;;;;;;;15.40;99.90;;;;;;5097349;28;20247;-64
2022/07/15 06:23:52;;;;;;;;;;;15.20;99.90;;;;;;5103906;28;20279;-64
2022/07/15 06:26:18;;;;;;;;;;;15.10;99.90;;;;;;5101524;28;19912;-64
2022/07/15 06:28:44;;;;;;;;;;;15.20;99.90;;;;;;5096002;28;19912;-65
2022/07/15 06:31:09;;;;;;;;;;;15.30;99.90;;;;;;5094992;28;19912;-64
2022/07/15 06:33:35;;;;;;;;;;;15.40;99.90;;;;;;5104677;28;19956;-64
2022/07/15 06:36:00;;;;;;;;;;;15.50;99.90;;;;;;5096377;28;19930;-63
2022/07/15 06:38:27;;;;;;;;;;;15.70;99.90;;;;;;5094865;28;19934;-65
2022/07/15 06:40:53;;;;;;;;;;;15.90;99.90;;;;;;5100996;28;19947;-63
2022/07/15 06:43:19;;;;;;;;;;;16.10;99.90;;;;;;5094035;28;20065;-65
2022/07/15 06:45:44;;;;;;;;;;;16.30;99.90;;;;;;5073735;28;19912;-65
2022/07/15 06:48:10;;;;;;;;;;;16.40;99.90;;;;;;5098625;28;19912;-65
2022/07/15 06:50:35;;;;;;;;;;;16.50;99.90;;;;;;5101338;28;19916;-65
2022/07/15 06:53:02;;;;;;;;;;;16.70;99.90;;;;;;5106049;28;19912;-64
2022/07/15 06:55:27;;;;;;;;;;;16.80;99.90;;;;;;5099264;28;19928;-65
2022/07/15 06:57:54;;;;;;;;;;;17.00;99.90;;;;;;5097159;28;20367;-64
2022/07/15 07:00:19;;;;;;;;;;;17.10;99.90;;;;;;5100202;28;19912;-65
2022/07/15 07:02:46;;;;;;;;;;;17.20;99.90;;;;;;5097357;28;20027;-64
2022/07/15 07:05:12;;;;;;;;;;;17.30;99.90;;;;;;5094815;28;19923;-65
2022/07/15 07:07:37;;;;;;;;;;;17.30;99.90;;;;;;5100266;28;19931;-64
2022/07/15 07:10:03;;;;;;;;;;;17.40;99.90;;;;;;5073457;28;19916;-64
2022/07/15 07:12:29;;;;;;;;;;;17.60;99.90;;;;;;5094776;28;19951;-64
2022/07/15 07:14:54;;;;;;;;;;;17.50;99.90;;;;;;5100248;28;20357;-64
2022/07/15 07:17:20;;;;;;;;;;;17.50;99.90;;;;;;5079729;28;20010;-65
2022/07/15 07:19:46;;;;;;;;;;;17.50;99.90;;;;;;5094029;28;19947;-64
2022/07/15 07:22:11;;;;;;;;;;;17.50;99.90;;;;;;5072151;28;20245;-64
2022/07/15 07:24:37;;;;;;;;;;;17.70;99.90;;;;;;5099403;28;19912;-65
2022/07/15 07:27:02;;;;;;;;;;;17.80;99.90;;;;;;5100024;28;19912;-65
2022/07/15 07:29:28;;;;;;;;;;;18.00;99.90;;;;;;5095308;28;19938;-65
2022/07/15 07:31:54;;;;;;;;;;;17.90;99.90;;;;;;5095995;28;19928;-66
2022/07/15 07:34:19;;;;;;;;;;;18.10;99.90;;;;;;5090622;28;19920;-65
2022/07/15 07:36:45;;;;;;;;;;;18.30;99.90;;;;;;5095941;28;19916;-65
2022/07/15 07:39:12;;;;;;;;;;;18.30;99.90;;;;;;5097444;28;20367;-65
2022/07/15 07:41:40;;;;;;;;;;;18.60;99.90;;;;;;5100825;28;19928;-65
2022/07/15 07:44:06;;;;;;;;;;;18.60;99.90;;;;;;5100691;28;19916;-65
2022/07/15 07:46:32;;;;;;;;;;;18.80;99.90;;;;;;5090254;28;20381;-65
2022/07/15 07:48:58;;;;;;;;;;;18.90;99.90;;;;;;5081071;28;20030;-65
2022/07/15 07:51:24;;;;;;;;;;;18.90;99.90;;;;;;5095262;28;19913;-64
2022/07/15 07:53:49;;;;;;;;;;;19.00;99.90;;;;;;5103608;28;19931;-64
2022/07/15 07:56:15;;;;;;;;;;;19.00;99.90;;;;;;5103894;28;20036;-65
2022/07/15 07:58:41;;;;;;;;;;;19.10;98.90;;;;;;5103327;28;19919;-63
2022/07/15 08:01:06;;;;;;;;;;;19.30;96.10;;;;;;5093315;28;19919;-63
2022/07/15 08:03:32;;;;;;;;;;;19.30;94.30;;;;;;5096320;28;20387;-64
2022/07/15 08:05:58;;;;;;;;;;;19.40;94.30;;;;;;5098503;28;20332;-64
2022/07/15 08:08:24;;;;;;;;;;;19.40;93.30;;;;;;5097765;28;20018;-64
2022/07/15 08:10:51;;;;;;;;;;;19.60;93.70;;;;;;5102518;28;19911;-64
2022/07/15 08:13:17;;;;;;;;;;;19.60;93.50;;;;;;5110597;28;20339;-64
2022/07/15 08:15:43;;;;;;;;;;;19.50;93.70;;;;;;5097256;28;20297;-65
2022/07/15 08:18:09;;;;;;;;;;;19.50;94.00;;;;;;5093171;28;20274;-65
2022/07/15 08:20:35;;;;;;;;;;;19.50;93.70;;;;;;5098086;28;19918;-65
2022/07/15 08:23:01;;;;;;;;;;;19.50;93.70;;;;;;5101682;28;19916;-64
2022/07/15 08:25:28;;;;;;;;;;;19.60;92.90;;;;;;5105836;28;20259;-64
2022/07/15 08:27:54;;;;;;;;;;;19.80;92.40;;;;;;5098336;28;20441;-65
2022/07/15 08:30:19;;;;;;;;;;;19.90;90.10;;;;;;5094110;28;19999;-64
2022/07/15 08:32:45;;;;;;;;;;;20.00;89.50;;;;;;5092986;28;19968;-65
2022/07/15 08:35:10;;;;;;;;;;;19.90;89.10;;;;;;5101511;28;19992;-65
2022/07/15 08:37:37;;;;;;;;;;;19.80;87.30;;;;;;5108350;28;19956;-65
2022/07/15 08:40:04;;;;;;;;;;;19.80;88.50;;;;;;5098112;28;19979;-65
2022/07/15 08:42:29;;;;;;;;;;;19.90;88.30;;;;;;5099603;28;19950;-64
2022/07/15 08:44:55;;;;;;;;;;;19.80;88.10;;;;;;5095575;28;19955;-65
2022/07/15 08:47:21;;;;;;;;;;;19.80;86.80;;;;;;5098398;28;19998;-63
2022/07/15 08:49:47;;;;;;;;;;;19.80;86.10;;;;;;5099907;28;19918;-65
2022/07/15 08:52:13;;;;;;;;;;;20.00;85.00;;;;;;5076844;28;19920;-65
2022/07/15 08:54:39;;;;;;;;;;;20.00;85.20;;;;;;5098700;28;19927;-65
2022/07/15 08:57:05;;;;;;;;;;;20.20;84.50;;;;;;5078347;28;19912;-64
2022/07/15 08:59:30;;;;;;;;;;;20.30;83.00;;;;;;5101884;28;20326;-64
2022/07/15 09:01:56;;;;;;;;;;;20.40;83.30;;;;;;5097820;28;19962;-64
2022/07/15 09:04:21;;;;;;;;;;;20.50;83.10;;;;;;5081180;28;20275;-64
2022/07/15 09:06:48;;;;;;;;;;;20.50;77.60;;;;;;5092051;28;20011;-65
2022/07/15 09:09:32;;;;;;;;;;;20.50;77.60;;;;;;5096481;28;19912;-65
2022/07/15 09:11:58;;;;;;;;;;;20.50;75.70;;;;;;5096147;28;20013;-65
2022/07/15 09:14:25;;;;;;;;;;;20.40;75.40;;;;;;5096728;28;19920;-64
2022/07/15 09:17:04;;;;;;;;;;;20.50;74.20;;;;;;5079809;28;20315;-64
2022/07/15 09:19:37;;;;;;;;;;;20.50;74.70;;;;;;5095458;28;19912;-65
2022/07/15 09:22:02;;;;;;;;;;;20.60;74.30;;;;;;5091101;28;19912;-63
2022/07/15 09:24:28;;;;;;;;;;;20.80;73.80;;;;;;5076261;28;19973;-64
2022/07/15 09:26:53;;;;;;;;;;;20.80;74.20;;;;;;5104867;28;19912;-64
2022/07/15 09:36:01;;;;;;;;;;;20.80;70.40;;;;;;5094777;28;22547;-65
2022/07/15 09:37:58;;;;;;;;;;;20.60;69.00;;;;;;5099158;28;19924;-64
2022/07/15 09:40:24;;;;;;;;;;;20.60;69.10;;;;;;5076486;28;19912;-64
2022/07/15 09:43:07;;;;;;;;;;;20.90;70.50;;;;;;5097499;28;19915;-65
2022/07/15 09:45:33;;;;;;;;;;;21.00;70.40;;;;;;5095217;28;19912;-65
2022/07/15 09:48:09;;;;;;;;;;;20.90;70.00;;;;;;5096190;28;20521;-63
2022/07/15 09:50:35;;;;;;;;;;;20.80;72.00;;;;;;5082206;28;19923;-64
2022/07/15 09:53:11;;;;;;;;;;;20.80;72.30;;;;;;5093511;28;19916;-63
2022/07/15 09:55:37;;;;;;;;;;;20.80;73.00;;;;;;5101543;28;19916;-65
2022/07/15 09:58:05;;;;;;;;;;;20.80;73.70;;;;;;5074939;28;19931;-64
2022/07/15 10:00:31;;;;;;;;;;;20.80;74.30;;;;;;5079283;28;20425;-64
2022/07/15 10:02:57;;;;;;;;;;;20.90;75.30;;;;;;5102847;28;19978;-63
2022/07/15 10:05:23;;;;;;;;;;;21.00;77.20;;;;;;5073082;28;19920;-65
2022/07/15 10:07:54;;;;;;;;;;;21.50;76.60;;;;;;5102957;28;19981;-64
2022/07/15 10:10:20;;;;;;;;;;;21.60;74.20;;;;;;5107690;28;19911;-64
2022/07/15 10:12:45;;;;;;;;;;;21.40;75.50;;;;;;5104185;28;19927;-64
2022/07/15 10:15:22;;;;;;;;;;;21.40;76.30;;;;;;5104722;28;20373;-63
2022/07/15 10:17:54;;;;;;;;;;;21.40;76.30;;;;;;5094624;28;20008;-65
2022/07/15 10:20:31;;;;;;;;;;;21.50;76.50;;;;;;5101042;28;21910;-64
2022/07/15 10:23:05;;;;;;;;;;;21.50;75.80;;;;;;5097803;28;20038;-63
2022/07/15 10:25:41;;;;;;;;;;;21.40;75.90;;;;;;5092849;28;19912;-64
2022/07/15 10:28:15;;;;;;;;;;;21.30;75.20;;;;;;5095389;28;19911;-64
2022/07/15 10:30:42;;;;;;;;;;;21.50;74.30;;;;;;5092695;28;20331;-64
2022/07/15 10:33:14;;;;;;;;;;;21.60;73.80;;;;;;5099083;28;19999;-64
2022/07/15 10:35:47;;;;;;;;;;;21.70;74.70;;;;;;5095192;28;19920;-65
2022/07/15 10:38:23;;;;;;;;;;;21.60;73.90;;;;;;5095522;28;19923;-64
2022/07/15 10:41:07;;;;;;;;;;;21.60;75.30;;;;;;5095934;28;19995;-64
2022/07/15 10:43:46;;;;;;;;;;;21.60;75.20;;;;;;5096904;28;19924;-65
2022/07/15 10:46:15;;;;;;;;;;;21.50;75.20;;;;;;5097674;28;20441;-65
2022/07/15 10:48:41;;;;;;;;;;;21.40;76.10;;;;;;5099537;28;19969;-65
2022/07/15 10:51:07;;;;;;;;;;;21.60;76.90;;;;;;5097084;28;19912;-65
2022/07/15 10:53:41;;;;;;;;;;;21.80;76.20;;;;;;5098705;28;19920;-64
2022/07/15 10:56:25;;;;;;;;;;;22.00;76.00;;;;;;5093516;28;19924;-64
2022/07/15 10:59:07;;;;;;;;;;;22.20;73.10;;;;;;5092492;28;19912;-64
2022/07/15 11:01:32;;;;;;;;;;;22.50;74.60;;;;;;5087824;28;19962;-65
2022/07/15 11:04:13;;;;;;;;;;;22.40;70.90;;;;;;5074166;28;19912;-64
2022/07/15 11:06:58;;;;;;;;;;;22.30;71.40;;;;;;5090021;28;19912;-64
2022/07/15 11:09:42;;;;;;;;;;;22.40;70.70;;;;;;5097723;28;19926;-65
2022/07/15 11:12:07;;;;;;;;;;;22.20;70.60;;;;;;5077394;28;19916;-64
2022/07/15 11:14:41;;;;;;;;;;;22.10;70.10;;;;;;5093081;28;20401;-65
2022/07/15 11:17:07;;;;;;;;;;;22.20;69.60;;;;;;5090460;28;19920;-64
2022/07/15 11:19:33;;;;;;;;;;;22.20;70.40;;;;;;5094669;28;19912;-65
2022/07/15 11:22:01;;;;;;;;;;;22.00;70.50;;;;;;5097062;28;19983;-65
2022/07/15 11:24:28;;;;;;;;;;;22.10;70.50;;;;;;5091807;28;20311;-64
2022/07/15 11:26:53;;;;;;;;;;;22.20;69.90;;;;;;5097152;28;19919;-64
2022/07/15 11:29:19;;;;;;;;;;;22.40;69.30;;;;;;5094287;28;20324;-66
2022/07/15 11:31:47;;;;;;;;;;;22.60;68.70;;;;;;5089802;28;19938;-65
2022/07/15 11:34:13;;;;;;;;;;;22.80;68.50;;;;;;5084714;28;19992;-64
2022/07/15 11:36:39;;;;;;;;;;;22.70;69.80;;;;;;5105807;28;19916;-64
2022/07/15 11:39:04;;;;;;;;;;;22.60;69.20;;;;;;5100583;28;19977;-64
2022/07/15 11:44:30;;;;;;;;;;;22.70;69.20;;;;;;5110579;28;19926;-64
2022/07/15 11:46:56;;;;;;;;;;;22.50;69.50;;;;;;5110831;28;19912;-65
2022/07/15 11:49:25;;;;;;;;;;;22.60;69.50;;;;;;5112619;28;19912;-64
2022/07/15 11:51:51;;;;;;;;;;;23.00;69.10;;;;;;5096788;28;19912;-64
2022/07/15 11:54:17;;;;;;;;;;;23.20;68.00;;;;;;5094719;28;19947;-65
2022/07/15 11:56:43;;;;;;;;;;;23.40;66.80;;;;;;5095830;28;19956;-64
2022/07/15 11:59:09;;;;;;;;;;;23.50;67.40;;;;;;5094055;28;19988;-65
2022/07/15 12:01:34;;;;;;;;;;;23.40;66.70;;;;;;5097150;28;19916;-65
2022/07/15 12:04:00;;;;;;;;;;;23.20;66.90;;;;;;5091369;28;19912;-65
2022/07/15 12:06:30;;;;;;;;;;;23.20;68.00;;;;;;5103636;28;19912;-64
2022/07/15 12:08:57;;;;;;;;;;;23.20;67.80;;;;;;5105948;28;19951;-65
2022/07/15 12:11:32;;;;;;;;;;;22.90;69.20;;;;;;5116845;28;19927;-64
2022/07/15 12:14:11;;;;;;;;;;;22.80;69.80;;;;;;5077699;28;19992;-66
2022/07/15 12:16:39;;;;;;;;;;;22.70;70.30;;;;;;5098655;28;19930;-65
2022/07/15 12:19:25;;;;;;;;;;;22.80;70.60;;;;;;5091160;28;19916;-65
2022/07/15 12:21:54;;;;;;;;;;;22.90;71.10;;;;;;5096092;28;19916;-65
2022/07/15 12:24:21;;;;;;;;;;;23.00;71.10;;;;;;5097604;28;19935;-65
2022/07/15 12:26:50;;;;;;;;;;;23.00;72.20;;;;;;5087351;28;19916;-65
2022/07/15 12:29:19;;;;;;;;;;;22.90;73.00;;;;;;5084392;28;19919;-65
2022/07/15 12:31:58;;;;;;;;;;;23.10;73.10;;;;;;5111392;28;19919;-64
2022/07/15 12:34:44;;;;;;;;;;;23.20;73.50;;;;;;5104912;28;19912;-65
2022/07/15 12:37:09;;;;;;;;;;;23.20;73.20;;;;;;5085813;28;19920;-65
2022/07/15 12:39:52;;;;;;;;;;;23.30;73.50;;;;;;5110430;28;19918;-64
2022/07/15 12:42:18;;;;;;;;;;;23.40;74.10;;;;;;5108577;28;20346;-66
2022/07/15 12:44:43;;;;;;;;;;;23.50;74.40;;;;;;5097745;28;19963;-65
2022/07/15 12:47:09;;;;;;;;;;;23.50;74.60;;;;;;5105139;28;20281;-65
2022/07/15 12:49:38;;;;;;;;;;;23.30;75.60;;;;;;5092911;28;19995;-65
2022/07/15 12:52:15;;;;;;;;;;;23.30;75.70;;;;;;5098426;28;19912;-65
2022/07/15 12:54:41;;;;;;;;;;;23.30;75.70;;;;;;5103310;28;19920;-65
2022/07/15 12:57:17;;;;;;;;;;;23.40;75.30;;;;;;5095010;28;20003;-66
2022/07/15 13:00:10;;;;;;;;;;;23.50;74.60;;;;;;5120177;28;19935;-65
2022/07/15 13:02:59;;;;;;;;;;;23.60;74.90;;;;;;5052622;28;19931;-63
2022/07/15 13:05:25;;;;;;;;;;;23.50;75.00;;;;;;5094211;28;19916;-64
2022/07/15 13:07:50;;;;;;;;;;;23.70;74.40;;;;;;5098099;28;19912;-64
2022/07/15 13:10:16;;;;;;;;;;;23.60;74.40;;;;;;5096189;28;20356;-66
2022/07/15 13:12:42;;;;;;;;;;;23.60;74.20;;;;;;5093175;28;20358;-65
2022/07/15 13:15:08;;;;;;;;;;;23.50;74.10;;;;;;5103963;28;20358;-64
2022/07/15 13:17:34;;;;;;;;;;;23.60;73.70;;;;;;5094854;28;19923;-64
2022/07/15 13:20:01;;;;;;;;;;;23.60;73.00;;;;;;5098454;28;20005;-65
2022/07/15 13:22:28;;;;;;;;;;;23.70;72.60;;;;;;5100099;28;20391;-66
2022/07/15 13:24:54;;;;;;;;;;;23.80;73.30;;;;;;5072194;28;19920;-64
2022/07/15 13:27:20;;;;;;;;;;;23.60;74.70;;;;;;5093110;28;19976;-64
2022/07/15 13:29:45;;;;;;;;;;;23.40;75.30;;;;;;5095857;28;19911;-65
2022/07/15 13:32:11;;;;;;;;;;;23.60;75.20;;;;;;5073715;28;19919;-66
2022/07/15 13:34:36;;;;;;;;;;;23.80;75.60;;;;;;5091912;28;19912;-66
2022/07/15 13:37:02;;;;;;;;;;;23.70;75.10;;;;;;5092963;28;19995;-63
2022/07/15 13:39:27;;;;;;;;;;;23.50;77.00;;;;;;5089353;28;19919;-65
2022/07/15 13:41:53;;;;;;;;;;;23.40;78.00;;;;;;5092214;28;19920;-68
2022/07/15 13:44:19;;;;;;;;;;;23.40;76.80;;;;;;5090058;28;20049;-65
2022/07/15 13:46:44;;;;;;;;;;;23.50;77.50;;;;;;5092755;28;19951;-65
2022/07/15 13:49:10;;;;;;;;;;;23.70;77.70;;;;;;5092871;28;19912;-65
2022/07/15 13:51:40;;;;;;;;;;;23.70;77.30;;;;;;5093900;28;19931;-64
2022/07/15 13:54:06;;;;;;;;;;;24.00;74.80;;;;;;5072737;28;19912;-64
2022/07/15 13:56:32;;;;;;;;;;;24.00;75.20;;;;;;5092099;28;19927;-64
2022/07/15 13:58:59;;;;;;;;;;;24.30;73.10;;;;;;5101131;28;20278;-65
2022/07/15 14:01:26;;;;;;;;;;;24.60;71.00;;;;;;5096952;28;19916;-64
2022/07/15 14:03:52;;;;;;;;;;;24.20;70.70;;;;;;5087390;28;20069;-65
2022/07/15 14:06:17;;;;;;;;;;;24.10;71.40;;;;;;5089172;28;20011;-64
2022/07/15 14:08:43;;;;;;;;;;;24.10;70.30;;;;;;5092474;28;20023;-65
2022/07/15 14:11:08;;;;;;;;;;;24.00;70.80;;;;;;5093939;28;20004;-65
2022/07/15 14:13:34;;;;;;;;;;;24.10;72.00;;;;;;5096309;28;19912;-65
2022/07/15 14:16:00;;;;;;;;;;;24.00;72.90;;;;;;5087239;28;19920;-65
2022/07/15 14:18:45;;;;;;;;;;;24.00;73.00;;;;;;5086480;28;20286;-65
2022/07/15 14:21:11;;;;;;;;;;;24.10;72.30;;;;;;5097120;28;20084;-66
2022/07/15 14:23:36;;;;;;;;;;;24.20;71.50;;;;;;5092772;28;20002;-65
2022/07/15 14:26:03;;;;;;;;;;;24.20;70.10;;;;;;5102186;28;19908;-65
2022/07/15 14:28:28;;;;;;;;;;;24.20;70.20;;;;;;5105318;28;20018;-66
2022/07/15 14:30:54;;;;;;;;;;;24.20;69.50;;;;;;5094956;28;20003;-65